Ride Results

Naracoorte Masters Games (02-04-2011)
Ride distance: 80.0 km

Outcomes - Naracoorte Masters Games (02-04-2011)
Division No. of Entries Retired / DNE Completed Withdrawn Ineligible V/O Percentage Completed
HW 15 - 14 - - 1 93.33%
MW 19 - 17 - - 2 89.47%
LW 12 - 11 - - 1 91.67%
JN 2 - 0 - 1 1 0.00%
Totals 48 - 42 - 1 5 87.50%
Results - Naracoorte Masters Games (02-04-2011)
No. Rider Horse Place Time Leg Speeds Total
Km/Hr
H/R bpm
Heavyweight
V18 Ken Bradley Twin Peaks Kenny Karaoke 1 (BC) 4:27:00 19.8, 16.4 17.98 36, 42, 53 (Avg:47)
V7 Robert Punicki Dunele 2 5:21:00 14.2, 15.6 14.95 42, 54, 47 (Avg:50)
107 Denis Sugars Devious Hot Rod 3 5:36:00 16.2, 12.7 14.29 34, 38, 46 (Avg:42)
188 Steve Ellis Playing With Fire 4 5:55:00 14.0, 13.0 13.52 31, 44, 48 (Avg:46)
84 Paula Van Eck Pyrenees Impala 5 6:04:00 13.2, 13.1 13.19 24, 34, 34 (Avg:34)
83 Tony Van Eck Pyrenees Viking 5 6:04:00 13.2, 13.1 13.19 42, 43, 51 (Avg:47)
225 Ray Heinrich Kirrani's Semillon Fire 7 6:18:00 12.7, 12.6 12.70 36, 46, 54 (Avg:50)
150 Jody Smith Rage On 8 6:23:00 13.0, 12.0 12.53 30, 42, 49 (Avg:45)
80 Tarrant Smith Sandine Liano 8 6:23:00 13.0, 12.0 12.53 36, 42, 50 (Avg:46)
S64 Bronya Kennedy Dakota Flame 10 6:31:00 12.1, 12.3 12.28 36, 42, 58 (Avg:50)
V216 Kristina Meskauskaite Karabah Tully 11 6:34:00 12.4, 11.9 12.18 40, 44, 47 (Avg:45)
V82 Jarrod Robinson Faris Monarch 12 6:36:00 12.4, 11.8 12.12 37, 45, 50 (Avg:47)
V313 Dom Falcomer Private Lady 13 6:38:00 12.2, 11.8 12.06 37, 48, 54 (Avg:51)
337 Allison Whitney Carnival Narbay 13 6:38:00 12.2, 11.8 12.06 29, 40, 48 (Avg:44)
V9 Sandy Horton Classique Eclipse Lame L2 0:00:00 12.4, 11.9 - 42, 44, 54 (Avg:49)
Middleweight
V215 Kim Fitzpatrick Cieanna 1 4:10:00 20.3, 18.1 19.20 36, 48, 50 (Avg:49)
78 Karen Alderton Qena Catt-Dancer 2 4:15:00 19.8, 17.9 18.82 39, 44, 52 (Avg:48)
63 Anne Simmons Yetunga Shine 2 (BC) 4:15:00 19.8, 17.9 18.82 38, 48, 49 (Avg:48)
70 Jil Bourton Veloce Liberty 4 4:27:00 19.8, 16.4 17.98 42, 49, 54 (Avg:51)
197 Jean Sims Codgers Creek Orion 5 5:06:00 15.9, 15.3 15.69 33, 44, 46 (Avg:45)
141 Jackie Drayton Clovelly Park Shandara 6 5:09:00 16.2, 14.9 15.53 38, 44, 51 (Avg:47)
V193 Patricia Mesiti Nimbook Zephyr 7 5:20:00 17.3, 13.1 15.00 35, 48, 60 (Avg:54)
194 Wendy Grundy Veloce Soldier Blue 8 5:23:00 15.9, 13.8 14.86 38, 54, 58 (Avg:56)
232 Jodie Luck Jirrima Verdict 9 5:28:00 14.4, 14.8 14.63 32, 43, 49 (Avg:46)
180 Melanie Scott Innovation 9 5:28:00 14.4, 14.8 14.63 33, 48, 54 (Avg:51)
69 Laura Salisbury Mianaibara Silversun Bart 11 6:05:00 13.0, 13.2 13.15 38, 46, 44 (Avg:45)
120 Maggi Winn Wompini Padimelon 11 6:05:00 13.1, 13.1 13.15 36, 39, 50 (Avg:44)
66 Bob Masters Sharwood Sinai 13 6:18:00 12.7, 12.6 12.70 34, 40, 44 (Avg:42)
V89 Sheryl Herbert Krishlah Maleeka 14 6:31:00 12.3, 12.2 12.28 37, 46, 58 (Avg:52)
V49 Jessica Remfry Max 14 6:31:00 12.3, 12.2 12.28 39, 42, 51 (Avg:46)
V77 Trish Reeves Musical Gully Techno 16 6:38:00 12.2, 11.8 12.06 34, 42, 41 (Avg:41)
62 Christabel Gurr Amberglade bint Shamirah 17 6:47:00 12.7, 10.9 11.79 37, 47, 60 (Avg:53)
22 Bob Gurr Bindii bint Grevillea Heart Rate L2 0:00:00 12.7, 10.9 - 44, 48, 69 (Avg:58)
65 Julie White Tarkhim Shar Shalenah Lame L2 0:00:00 13.2, 11.7 - 32, 49, 50 (Avg:49)
Lightweight
111 Cheryl Bullock Jakassa Faliqha 1 5:04:00 17.0, 14.7 15.79 44, 46, 59 (Avg:52)
S217 Danni Van Eck Coolinda Park Embezzler 1 5:04:00 17.0, 14.7 15.79 30, 42, 55 (Avg:48)
224 Rebekah French-Davis Annabelle 3 (BC) 5:06:00 15.9, 15.3 15.69 34, 44, 44 (Avg:44)
140 Michelle Munro Tiawarra Ramy 4 5:09:00 16.2, 14.9 15.53 33, 44, 49 (Avg:46)
V183 Nicky Robinson Sterling Nakeeta 5 5:36:00 15.4, 13.2 14.29 43, 47, 47 (Avg:47)
216 Jessica Aistrope Tarkhim Shar Bastille 6 5:55:00 14.0, 13.0 13.52 34, 43, 42 (Avg:42)
267 Linda Magro Highland View Taz 7 5:56:00 13.6, 13.3 13.48 36, 48, 55 (Avg:51)
V61 Lois Sharam Musical Gully Carousel 8 5:58:00 13.6, 13.1 13.41 37, 48, 52 (Avg:50)
162 Carla Tanner Veloce Waterloo 9 6:04:00 13.2, 13.1 13.19 44, 46, 50 (Avg:48)
V91 Kim Noble Nasq Ace of Swords 10 6:36:00 12.4, 11.8 12.12 36, 43, 51 (Avg:47)
V114 Helen Spencer Imoan Party Girl 11 6:47:00 12.1, 11.4 11.79 42, 41, 49 (Avg:45)
81 Tanya Perry Windradyne Hot Pepper Lame L1 0:00:00 13.2 - 34, 45 (Avg:45)
Junior
V90 Samantha Noble Springridge Bungendore Lame L2 0:00:00 15.4, 26.3 - 28, 42, 39 (Avg:40)
V154 Tegan Gillingham Al Bahir Out of Time L1 0:00:00 15.9 - 30, 40 (Avg:40)